Time;durP1;ratioP1;P1;durP2;ratioP2;P2;SDS_P1;SDS_P2;PMS_P1;PMS_P2;Temp;Humidity;BMP_temperature;BMP_pressure;BME280_temperature;BME280_humidity;BME280_pressure;Samples;Min_cycle;Max_cycle;Signal;HPM_P1;HPM_P2
2024/01/28 00:00:35;;;;;;;7.50;2.55;;;;;;;;;;8268995;28;19975;-59
2024/01/28 00:04:35;;;;;;;9.02;2.22;;;;;;;;;;8270119;28;20937;-59
2024/01/28 00:08:36;;;;;;;8.55;2.10;;;;;;;;;;8271034;28;20030;-59
2024/01/28 00:12:36;;;;;;;7.53;2.40;;;;;;;;;;8267855;28;20537;-59
2024/01/28 00:16:36;;;;;;;7.97;2.50;;;;;;;;;;8257390;28;20069;-59
2024/01/28 00:20:36;;;;;;;5.25;2.10;;;;;;;;;;8259420;28;20313;-60
2024/01/28 00:24:37;;;;;;;6.30;2.17;;;;;;;;;;8256744;28;21004;-60
2024/01/28 00:28:37;;;;;;;5.43;2.58;;;;;;;;;;8264019;28;20084;-60
2024/01/28 00:32:39;;;;;;;4.28;2.25;;;;;;;;;;8264534;28;20048;-60
2024/01/28 00:36:39;;;;;;;8.05;2.20;;;;;;;;;;8258889;28;20298;-59
2024/01/28 00:40:39;;;;;;;4.97;2.67;;;;;;;;;;8262591;28;20130;-59
2024/01/28 00:44:39;;;;;;;4.85;2.67;;;;;;;;;;8261980;28;20049;-60
2024/01/28 00:48:40;;;;;;;6.75;2.92;;;;;;;;;;8295938;28;20037;-59
2024/01/28 00:52:41;;;;;;;8.93;3.38;;;;;;;;;;8285742;28;20036;-60
2024/01/28 00:56:41;;;;;;;7.05;2.80;;;;;;;;;;8282615;28;20037;-59
2024/01/28 01:00:41;;;;;;;10.98;2.83;;;;;;;;;;8295407;28;20033;-58
2024/01/28 01:04:41;;;;;;;5.13;2.50;;;;;;;;;;8283485;28;20018;-59
2024/01/28 01:08:42;;;;;;;12.68;3.30;;;;;;;;;;8283243;28;20268;-59
2024/01/28 01:12:42;;;;;;;5.88;2.45;;;;;;;;;;8286126;28;20733;-60
2024/01/28 01:16:42;;;;;;;10.68;3.10;;;;;;;;;;8271995;28;20060;-60
2024/01/28 01:20:43;;;;;;;4.72;2.78;;;;;;;;;;8247523;28;20030;-59
2024/01/28 01:24:43;;;;;;;6.13;2.70;;;;;;;;;;8252729;28;20029;-58
2024/01/28 01:28:43;;;;;;;6.80;2.70;;;;;;;;;;8264302;28;20408;-58
2024/01/28 01:32:43;;;;;;;8.85;3.22;;;;;;;;;;8265288;28;20037;-58
2024/01/28 01:36:44;;;;;;;6.32;2.47;;;;;;;;;;8266570;28;20096;-58
2024/01/28 01:40:44;;;;;;;6.82;2.53;;;;;;;;;;8263280;28;20171;-60
2024/01/28 01:44:44;;;;;;;8.50;2.47;;;;;;;;;;8267620;28;20535;-58
2024/01/28 01:48:45;;;;;;;4.97;2.17;;;;;;;;;;8257363;28;20038;-59
2024/01/28 01:52:46;;;;;;;3.80;2.28;;;;;;;;;;8251710;28;20021;-56
2024/01/28 01:56:46;;;;;;;8.47;2.53;;;;;;;;;;8268326;28;20037;-59
2024/01/28 02:00:46;;;;;;;5.50;2.60;;;;;;;;;;8285557;28;20304;-59
2024/01/28 02:04:47;;;;;;;4.40;2.42;;;;;;;;;;8287508;28;20029;-59
2024/01/28 02:08:47;;;;;;;11.25;2.83;;;;;;;;;;8288855;28;20026;-59
2024/01/28 02:12:50;;;;;;;9.32;3.47;;;;;;;;;;8287967;28;20032;-60
2024/01/28 02:16:50;;;;;;;5.30;2.97;;;;;;;;;;8289453;28;20656;-60
2024/01/28 02:20:50;;;;;;;9.73;3.35;;;;;;;;;;8293780;28;20030;-60
2024/01/28 02:24:51;;;;;;;7.95;3.50;;;;;;;;;;8297059;28;20117;-59
2024/01/28 02:28:51;;;;;;;9.75;3.40;;;;;;;;;;8258522;28;20026;-59
2024/01/28 02:32:51;;;;;;;7.17;2.87;;;;;;;;;;8258138;28;20045;-58
2024/01/28 02:36:51;;;;;;;7.95;3.70;;;;;;;;;;8260101;28;20479;-61
2024/01/28 02:40:52;;;;;;;6.75;3.15;;;;;;;;;;8250455;28;21096;-60
2024/01/28 02:44:52;;;;;;;8.45;3.50;;;;;;;;;;8245035;28;21148;-59
2024/01/28 02:48:52;;;;;;;7.70;3.78;;;;;;;;;;8248570;28;22384;-59
2024/01/28 02:52:52;;;;;;;7.30;3.38;;;;;;;;;;8251517;28;21090;-59
2024/01/28 02:56:53;;;;;;;6.80;3.33;;;;;;;;;;8255347;28;20495;-59
2024/01/28 03:00:53;;;;;;;6.63;3.72;;;;;;;;;;8240446;28;20649;-59
2024/01/28 03:04:53;;;;;;;6.18;3.17;;;;;;;;;;8247287;28;20022;-60
2024/01/28 03:08:53;;;;;;;9.15;3.92;;;;;;;;;;8237752;28;20096;-59
2024/01/28 03:12:53;;;;;;;6.75;3.45;;;;;;;;;;8236053;28;20209;-58
2024/01/28 03:16:53;;;;;;;8.30;3.60;;;;;;;;;;8236480;28;20048;-58
2024/01/28 03:20:54;;;;;;;7.90;3.10;;;;;;;;;;8237080;28;20287;-58
2024/01/28 03:24:54;;;;;;;6.78;3.30;;;;;;;;;;8240512;28;20025;-58
2024/01/28 03:28:54;;;;;;;12.07;3.30;;;;;;;;;;8244005;28;20022;-59
2024/01/28 03:32:54;;;;;;;9.27;3.45;;;;;;;;;;8246371;28;20172;-57
2024/01/28 03:36:54;;;;;;;7.55;3.45;;;;;;;;;;8251972;28;20036;-57
2024/01/28 03:40:55;;;;;;;10.50;3.60;;;;;;;;;;8250055;28;20071;-59
2024/01/28 03:44:55;;;;;;;6.80;3.03;;;;;;;;;;8255918;28;20140;-56
2024/01/28 03:48:55;;;;;;;8.00;3.80;;;;;;;;;;8253803;28;20240;-57
2024/01/28 03:52:55;;;;;;;10.85;3.90;;;;;;;;;;8244437;28;20048;-58
2024/01/28 03:56:55;;;;;;;6.22;3.05;;;;;;;;;;8238641;28;20394;-57
2024/01/28 04:00:55;;;;;;;4.80;2.90;;;;;;;;;;8237878;28;20067;-57
2024/01/28 04:04:55;;;;;;;6.13;3.10;;;;;;;;;;8238803;28;20025;-58
2024/01/28 04:08:56;;;;;;;7.30;3.05;;;;;;;;;;8237380;28;20386;-57
2024/01/28 04:12:56;;;;;;;6.78;2.78;;;;;;;;;;8231024;28;20035;-57
2024/01/28 04:16:57;;;;;;;6.10;2.60;;;;;;;;;;8234195;28;20051;-58
2024/01/28 04:20:57;;;;;;;5.60;2.50;;;;;;;;;;8240508;28;20029;-60
2024/01/28 04:24:57;;;;;;;8.43;2.60;;;;;;;;;;8247638;28;20399;-58
2024/01/28 04:28:57;;;;;;;4.95;3.00;;;;;;;;;;8248706;28;20021;-59
2024/01/28 04:32:57;;;;;;;5.75;3.00;;;;;;;;;;8250247;28;20045;-58
2024/01/28 04:36:57;;;;;;;6.15;3.10;;;;;;;;;;8251576;28;20116;-59
2024/01/28 04:40:58;;;;;;;6.40;3.40;;;;;;;;;;8251258;28;20258;-59
2024/01/28 04:44:58;;;;;;;6.72;3.40;;;;;;;;;;8256885;28;20025;-59
2024/01/28 04:48:58;;;;;;;5.40;2.97;;;;;;;;;;8263257;28;20034;-59
2024/01/28 04:52:58;;;;;;;5.63;2.90;;;;;;;;;;8250951;28;20048;-59
2024/01/28 04:57:01;;;;;;;7.10;3.35;;;;;;;;;;8262300;28;20028;-60
2024/01/28 05:01:01;;;;;;;7.00;3.20;;;;;;;;;;8239931;28;20045;-60
2024/01/28 05:05:01;;;;;;;10.80;3.30;;;;;;;;;;8237868;28;20235;-59
2024/01/28 05:09:06;;;;;;;6.78;4.15;;;;;;;;;;8232652;28;20767;-59
2024/01/28 05:13:06;;;;;;;7.35;3.58;;;;;;;;;;8236638;28;20257;-60
2024/01/28 05:17:06;;;;;;;8.07;3.20;;;;;;;;;;8237119;28;20469;-59
2024/01/28 05:21:06;;;;;;;8.63;4.05;;;;;;;;;;8234741;28;20033;-58
2024/01/28 05:25:06;;;;;;;8.43;3.90;;;;;;;;;;8231753;28;20381;-60
2024/01/28 05:29:07;;;;;;;8.25;3.25;;;;;;;;;;8240960;28;20080;-59
2024/01/28 05:33:07;;;;;;;8.00;3.53;;;;;;;;;;8248648;28;20037;-60
2024/01/28 05:37:09;;;;;;;5.13;3.40;;;;;;;;;;8245972;28;20428;-60
2024/01/28 05:41:09;;;;;;;8.85;3.25;;;;;;;;;;8249993;28;20665;-59
2024/01/28 05:45:10;;;;;;;10.32;3.30;;;;;;;;;;8261054;28;20180;-60
2024/01/28 05:49:11;;;;;;;10.43;4.10;;;;;;;;;;8258540;28;20030;-58
2024/01/28 05:53:11;;;;;;;6.22;3.63;;;;;;;;;;8255552;28;20441;-59
2024/01/28 05:57:12;;;;;;;11.15;3.70;;;;;;;;;;8255284;28;20292;-59
2024/01/28 06:01:14;;;;;;;8.15;3.75;;;;;;;;;;8256405;28;20044;-59
2024/01/28 06:05:14;;;;;;;11.05;3.95;;;;;;;;;;8260304;28;20521;-60
2024/01/28 06:09:14;;;;;;;6.90;3.45;;;;;;;;;;8253864;28;20391;-59
2024/01/28 06:13:14;;;;;;;6.05;3.13;;;;;;;;;;8250090;28;20900;-59
2024/01/28 06:17:15;;;;;;;6.57;3.65;;;;;;;;;;8250528;28;20037;-60
2024/01/28 06:21:15;;;;;;;7.10;3.35;;;;;;;;;;8255278;28;20038;-59
2024/01/28 06:25:15;;;;;;;8.63;3.60;;;;;;;;;;8253647;28;20217;-59
2024/01/28 06:29:15;;;;;;;8.02;3.45;;;;;;;;;;8258561;28;20407;-59
2024/01/28 06:33:16;;;;;;;7.80;3.30;;;;;;;;;;8264045;28;20410;-59
2024/01/28 06:37:17;;;;;;;5.10;3.00;;;;;;;;;;8275619;28;20474;-59
2024/01/28 06:41:17;;;;;;;8.20;4.10;;;;;;;;;;8296701;28;20209;-59
2024/01/28 06:45:17;;;;;;;9.35;3.47;;;;;;;;;;8299517;28;20032;-60
2024/01/28 06:49:17;;;;;;;7.47;3.70;;;;;;;;;;8299640;28;20479;-59
2024/01/28 06:53:17;;;;;;;10.85;4.20;;;;;;;;;;8293252;28;20040;-60
2024/01/28 06:57:19;;;;;;;11.73;4.03;;;;;;;;;;8297512;28;20072;-59
2024/01/28 07:01:19;;;;;;;12.13;5.00;;;;;;;;;;8291112;28;20045;-59
2024/01/28 07:05:20;;;;;;;9.30;4.55;;;;;;;;;;8288412;28;20041;-59
2024/01/28 07:09:21;;;;;;;6.60;4.18;;;;;;;;;;8286844;28;20025;-59
2024/01/28 07:13:21;;;;;;;15.13;4.72;;;;;;;;;;8291075;28;20083;-59
2024/01/28 07:17:21;;;;;;;11.30;6.18;;;;;;;;;;8290613;28;20425;-59
2024/01/28 07:21:22;;;;;;;11.23;5.05;;;;;;;;;;8293138;28;20029;-60
2024/01/28 07:25:22;;;;;;;8.85;5.32;;;;;;;;;;8299049;28;20021;-59
2024/01/28 07:29:22;;;;;;;11.85;5.20;;;;;;;;;;8299312;28;21021;-59
2024/01/28 07:33:22;;;;;;;10.65;4.75;;;;;;;;;;8295033;28;20034;-59
2024/01/28 07:37:23;;;;;;;8.50;4.32;;;;;;;;;;8300347;28;20033;-59
2024/01/28 07:41:23;;;;;;;9.48;5.18;;;;;;;;;;8297876;28;20068;-59
2024/01/28 07:45:24;;;;;;;8.55;5.60;;;;;;;;;;8300119;28;20144;-60
2024/01/28 07:49:24;;;;;;;12.32;5.32;;;;;;;;;;8269407;28;20552;-56
2024/01/28 07:53:25;;;;;;;8.07;5.28;;;;;;;;;;8265967;28;20034;-58
2024/01/28 07:57:25;;;;;;;10.35;5.30;;;;;;;;;;8263245;28;20036;-58
2024/01/28 08:01:29;;;;;;;12.43;5.82;;;;;;;;;;8261236;28;20034;-58
2024/01/28 08:05:30;;;;;;;;;;;;;;;;;;8259169;28;20761;-57
2024/01/28 08:09:31;;;;;;;8.02;4.47;;;;;;;;;;8261397;28;19956;-58
2024/01/28 08:13:31;;;;;;;9.82;4.97;;;;;;;;;;8264267;28;20136;-59
2024/01/28 08:17:32;;;;;;;11.30;4.43;;;;;;;;;;8258886;28;20153;-60
2024/01/28 08:21:33;;;;;;;6.10;4.28;;;;;;;;;;8257454;28;20356;-60
2024/01/28 08:25:33;;;;;;;11.10;4.05;;;;;;;;;;8256357;28;20060;-60
2024/01/28 08:29:33;;;;;;;5.70;3.65;;;;;;;;;;8251241;28;20026;-60
2024/01/28 08:33:34;;;;;;;4.78;3.38;;;;;;;;;;8248677;28;20037;-60
2024/01/28 08:37:34;;;;;;;7.20;3.63;;;;;;;;;;8239639;28;20132;-60
2024/01/28 08:41:34;;;;;;;7.38;3.53;;;;;;;;;;8248270;28;20354;-60
2024/01/28 08:45:36;;;;;;;7.43;3.63;;;;;;;;;;8248707;28;20086;-61
2024/01/28 08:49:36;;;;;;;11.07;4.65;;;;;;;;;;8248725;28;20271;-60
2024/01/28 08:53:36;;;;;;;7.45;3.95;;;;;;;;;;8237949;28;20032;-59
2024/01/28 08:57:37;;;;;;;8.43;3.60;;;;;;;;;;8235612;28;20021;-56
2024/01/28 09:01:37;;;;;;;7.18;4.15;;;;;;;;;;8238915;28;20096;-58
2024/01/28 09:05:37;;;;;;;6.18;3.85;;;;;;;;;;8243442;28;20025;-58
2024/01/28 09:09:37;;;;;;;5.23;3.13;;;;;;;;;;8240322;28;20450;-57
2024/01/28 09:13:37;;;;;;;7.57;3.97;;;;;;;;;;8244354;28;20311;-57
2024/01/28 09:17:37;;;;;;;11.63;3.90;;;;;;;;;;8243030;28;20700;-58
2024/01/28 09:21:38;;;;;;;8.32;3.70;;;;;;;;;;8226343;28;20723;-58
2024/01/28 09:25:38;;;;;;;8.13;3.70;;;;;;;;;;8223719;28;20394;-58
2024/01/28 09:29:38;;;;;;;5.25;3.40;;;;;;;;;;8239815;28;20422;-58
2024/01/28 09:33:38;;;;;;;4.15;3.20;;;;;;;;;;8236566;28;20153;-61
2024/01/28 09:37:38;;;;;;;9.52;3.97;;;;;;;;;;8246627;28;20101;-59
2024/01/28 09:41:48;;;;;;;9.88;4.43;;;;;;;;;;8263960;28;20060;-58
2024/01/28 09:45:48;;;;;;;10.27;4.60;;;;;;;;;;8263905;28;20366;-59
2024/01/28 09:49:49;;;;;;;11.07;4.50;;;;;;;;;;8262698;28;20383;-59
2024/01/28 09:53:49;;;;;;;5.72;3.85;;;;;;;;;;8256031;28;20311;-59
2024/01/28 09:57:49;;;;;;;11.60;4.53;;;;;;;;;;8260120;28;20030;-59
2024/01/28 10:01:52;;;;;;;10.02;4.72;;;;;;;;;;8256660;28;20366;-60
2024/01/28 10:05:52;;;;;;;10.55;4.95;;;;;;;;;;8254936;28;20032;-58
2024/01/28 10:09:52;;;;;;;8.27;5.18;;;;;;;;;;8243639;28;20591;-58
2024/01/28 10:13:53;;;;;;;10.90;5.23;;;;;;;;;;8239260;28;20021;-58
2024/01/28 10:17:54;;;;;;;6.70;4.03;;;;;;;;;;8228399;28;20292;-57
2024/01/28 10:21:54;;;;;;;7.93;4.80;;;;;;;;;;8221933;28;20041;-58
2024/01/28 10:26:00;;;;;;;14.17;4.80;;;;;;;;;;8239714;28;20568;-58
2024/01/28 10:30:01;;;;;;;10.40;4.95;;;;;;;;;;8250906;28;20272;-58
2024/01/28 10:34:02;;;;;;;8.07;4.57;;;;;;;;;;8255384;28;20064;-58
2024/01/28 10:38:03;;;;;;;9.20;4.68;;;;;;;;;;8263006;28;20025;-59
2024/01/28 10:42:04;;;;;;;11.75;5.25;;;;;;;;;;8273473;28;20018;-58
2024/01/28 10:46:05;;;;;;;7.13;4.20;;;;;;;;;;8276162;28;20043;-59
2024/01/28 10:50:07;;;;;;;9.65;4.90;;;;;;;;;;8259870;28;20026;-59
2024/01/28 10:54:08;;;;;;;8.35;4.70;;;;;;;;;;8259190;28;20498;-59
2024/01/28 10:58:08;;;;;;;11.05;4.50;;;;;;;;;;8254092;28;20083;-60
2024/01/28 11:02:09;;;;;;;7.70;4.30;;;;;;;;;;8258457;28;20849;-59
2024/01/28 11:06:09;;;;;;;7.47;4.20;;;;;;;;;;8252489;28;20025;-59
2024/01/28 11:10:09;;;;;;;8.38;4.20;;;;;;;;;;8256820;28;20664;-59
2024/01/28 11:14:10;;;;;;;7.07;3.75;;;;;;;;;;8256677;28;20083;-59
2024/01/28 11:18:11;;;;;;;11.35;3.85;;;;;;;;;;8258998;28;20473;-60
2024/01/28 11:22:15;;;;;;;9.95;4.10;;;;;;;;;;8256485;28;20056;-59
2024/01/28 11:26:16;;;;;;;9.40;3.55;;;;;;;;;;8256509;28;20610;-59
2024/01/28 11:30:21;;;;;;;5.95;3.67;;;;;;;;;;8257941;28;20026;-58
2024/01/28 11:34:21;;;;;;;8.15;3.72;;;;;;;;;;8255613;28;20033;-60
2024/01/28 11:38:22;;;;;;;7.63;3.80;;;;;;;;;;8265483;28;20563;-59
2024/01/28 11:42:22;;;;;;;7.35;3.58;;;;;;;;;;8268331;28;20056;-57
2024/01/28 11:46:23;;;;;;;7.97;3.75;;;;;;;;;;8268055;28;20033;-58
2024/01/28 11:50:23;;;;;;;4.22;2.70;;;;;;;;;;8270809;28;20140;-59
2024/01/28 11:54:23;;;;;;;7.30;3.60;;;;;;;;;;8257524;28;20202;-59
2024/01/28 11:58:24;;;;;;;4.90;3.28;;;;;;;;;;8256972;28;20482;-58
2024/01/28 12:02:24;;;;;;;8.80;3.75;;;;;;;;;;8259141;28;20030;-57
2024/01/28 12:06:29;;;;;;;3.95;3.25;;;;;;;;;;8254528;28;20127;-58
2024/01/28 12:10:29;;;;;;;7.95;3.15;;;;;;;;;;8257286;28;20017;-58
2024/01/28 12:14:29;;;;;;;5.63;3.13;;;;;;;;;;8253796;28;20033;-58
2024/01/28 12:18:33;;;;;;;6.03;3.10;;;;;;;;;;8248936;28;20045;-58
2024/01/28 12:22:36;;;;;;;8.25;3.42;;;;;;;;;;8256425;28;21407;-58
2024/01/28 12:26:36;;;;;;;6.82;3.45;;;;;;;;;;8248682;28;20119;-57
2024/01/28 12:30:37;;;;;;;6.80;3.60;;;;;;;;;;8264736;28;20460;-58
2024/01/28 12:34:37;;;;;;;8.70;3.35;;;;;;;;;;8270603;28;20428;-59
2024/01/28 12:38:38;;;;;;;7.78;3.25;;;;;;;;;;8271331;28;20050;-59
2024/01/28 12:42:40;;;;;;;6.35;3.30;;;;;;;;;;8274659;28;20029;-59
2024/01/28 12:46:40;;;;;;;8.30;3.88;;;;;;;;;;8274691;28;20418;-59
2024/01/28 12:50:41;;;;;;;6.88;3.38;;;;;;;;;;8273407;28;20034;-59
2024/01/28 12:54:41;;;;;;;7.22;3.22;;;;;;;;;;8270825;28;20136;-59
2024/01/28 12:58:41;;;;;;;5.25;3.35;;;;;;;;;;8270503;28;20656;-58
2024/01/28 13:02:42;;;;;;;6.57;3.57;;;;;;;;;;8251463;28;20095;-57
2024/01/28 13:06:43;;;;;;;8.30;3.47;;;;;;;;;;8253992;28;20735;-58
2024/01/28 13:10:43;;;;;;;7.15;3.67;;;;;;;;;;8255143;28;20069;-58
2024/01/28 13:14:43;;;;;;;5.85;3.63;;;;;;;;;;8258420;28;20569;-58
2024/01/28 13:18:45;;;;;;;10.80;3.92;;;;;;;;;;8251270;28;20242;-58
2024/01/28 13:22:45;;;;;;;7.97;4.07;;;;;;;;;;8251517;28;20709;-59
2024/01/28 13:26:45;;;;;;;8.98;4.50;;;;;;;;;;8255265;28;20385;-59
2024/01/28 13:30:46;;;;;;;10.03;4.10;;;;;;;;;;8254124;28;20152;-60
2024/01/28 13:34:46;;;;;;;6.25;4.22;;;;;;;;;;8255587;28;20291;-57
2024/01/28 13:38:47;;;;;;;9.10;4.18;;;;;;;;;;8252152;28;20036;-57
2024/01/28 13:42:47;;;;;;;8.27;3.70;;;;;;;;;;8252591;28;20577;-59
2024/01/28 13:46:47;;;;;;;9.02;4.30;;;;;;;;;;8252351;28;20109;-58
2024/01/28 13:50:47;;;;;;;5.75;3.67;;;;;;;;;;8256774;28;20095;-59
2024/01/28 13:54:47;;;;;;;6.25;3.67;;;;;;;;;;8257491;28;20032;-64
2024/01/28 13:58:47;;;;;;;8.43;4.15;;;;;;;;;;8252504;28;21126;-59
2024/01/28 14:02:48;;;;;;;7.57;4.40;;;;;;;;;;8255257;28;20379;-59
2024/01/28 14:06:48;;;;;;;8.07;4.93;;;;;;;;;;8251746;28;20461;-58
2024/01/28 14:10:48;;;;;;;7.68;3.78;;;;;;;;;;8270276;28;20159;-58
2024/01/28 14:14:48;;;;;;;9.38;4.68;;;;;;;;;;8280031;28;20034;-58
2024/01/28 14:18:48;;;;;;;6.57;4.40;;;;;;;;;;8277477;28;20111;-57
2024/01/28 14:22:48;;;;;;;9.25;4.32;;;;;;;;;;8260467;28;20487;-57
2024/01/28 14:26:49;;;;;;;7.80;4.22;;;;;;;;;;8258779;28;20693;-56
2024/01/28 14:30:49;;;;;;;7.53;4.15;;;;;;;;;;8251680;28;20041;-57
2024/01/28 14:34:49;;;;;;;9.00;4.40;;;;;;;;;;8263130;28;20840;-57
2024/01/28 14:38:49;;;;;;;10.80;5.50;;;;;;;;;;8257748;28;20048;-57
2024/01/28 14:42:50;;;;;;;9.07;5.10;;;;;;;;;;8260715;28;22085;-58
2024/01/28 14:46:51;;;;;;;12.82;5.75;;;;;;;;;;8262496;28;20621;-57
2024/01/28 14:50:51;;;;;;;10.07;5.22;;;;;;;;;;8268494;28;20375;-59
2024/01/28 14:54:51;;;;;;;10.63;5.23;;;;;;;;;;8282385;28;20091;-59
2024/01/28 14:58:51;;;;;;;11.57;5.07;;;;;;;;;;8275033;28;22386;-60
2024/01/28 15:02:51;;;;;;;9.75;5.10;;;;;;;;;;8276812;28;20626;-59
2024/01/28 15:06:52;;;;;;;8.60;5.10;;;;;;;;;;8273829;28;20471;-58
2024/01/28 15:10:52;;;;;;;10.98;5.32;;;;;;;;;;8276192;28;20415;-59
2024/01/28 15:14:52;;;;;;;8.00;4.70;;;;;;;;;;8280928;28;20036;-59
2024/01/28 15:18:52;;;;;;;9.18;4.47;;;;;;;;;;8283427;28;20523;-58
2024/01/28 15:22:52;;;;;;;8.10;4.90;;;;;;;;;;8279696;28;21221;-57
2024/01/28 15:26:52;;;;;;;9.05;5.55;;;;;;;;;;8278919;28;21479;-58
2024/01/28 15:30:53;;;;;;;11.77;6.90;;;;;;;;;;8283205;28;20047;-60
2024/01/28 15:34:53;;;;;;;9.88;4.60;;;;;;;;;;8287400;28;20272;-58
2024/01/28 15:38:54;;;;;;;7.40;4.10;;;;;;;;;;8281443;28;20098;-58
2024/01/28 15:42:54;;;;;;;7.78;4.75;;;;;;;;;;8287927;28;20059;-58
2024/01/28 15:46:54;;;;;;;6.88;4.35;;;;;;;;;;8279100;28;20030;-59
2024/01/28 15:50:54;;;;;;;8.43;4.72;;;;;;;;;;8287499;28;20113;-61
2024/01/28 15:54:55;;;;;;;9.13;4.63;;;;;;;;;;8289676;28;20026;-59
2024/01/28 15:58:55;;;;;;;6.85;4.43;;;;;;;;;;8287542;28;20513;-59
2024/01/28 16:02:55;;;;;;;9.32;5.32;;;;;;;;;;8265295;28;20437;-57
2024/01/28 16:06:56;;;;;;;10.93;5.13;;;;;;;;;;8256758;28;20116;-57
2024/01/28 16:10:56;;;;;;;7.65;5.00;;;;;;;;;;8253929;28;20056;-57
2024/01/28 16:14:57;;;;;;;7.53;4.80;;;;;;;;;;8260555;28;20116;-56
2024/01/28 16:18:57;;;;;;;6.78;4.03;;;;;;;;;;8253633;28;20041;-57
2024/01/28 16:22:58;;;;;;;7.57;4.38;;;;;;;;;;8256144;28;20029;-57
2024/01/28 16:26:59;;;;;;;11.75;5.63;;;;;;;;;;8246923;28;20145;-58
2024/01/28 16:31:01;;;;;;;10.43;6.07;;;;;;;;;;8253002;28;20120;-59
2024/01/28 16:35:01;;;;;;;9.57;6.15;;;;;;;;;;8258463;28;20424;-63
2024/01/28 16:39:01;;;;;;;8.63;6.20;;;;;;;;;;8257872;28;20031;-58
2024/01/28 16:43:01;;;;;;;8.85;6.07;;;;;;;;;;8279293;28;20085;-59
2024/01/28 16:47:02;;;;;;;10.52;6.07;;;;;;;;;;8284071;28;20038;-59
2024/01/28 16:51:02;;;;;;;7.70;5.03;;;;;;;;;;8281672;28;20215;-59
2024/01/28 16:55:03;;;;;;;8.32;4.63;;;;;;;;;;8287985;28;20040;-59
2024/01/28 16:59:03;;;;;;;9.20;5.28;;;;;;;;;;8286355;28;20596;-59
2024/01/28 17:03:05;;;;;;;9.77;4.60;;;;;;;;;;8282406;28;20037;-59
2024/01/28 17:07:06;;;;;;;8.30;4.55;;;;;;;;;;8287338;28;20504;-58
2024/01/28 17:11:06;;;;;;;7.75;4.70;;;;;;;;;;8278361;28;20546;-57
2024/01/28 17:15:07;;;;;;;10.03;4.97;;;;;;;;;;8256381;28;20053;-58
2024/01/28 17:19:08;;;;;;;6.18;5.03;;;;;;;;;;8253188;28;20341;-57
2024/01/28 17:23:09;;;;;;;7.78;4.60;;;;;;;;;;8255692;28;20095;-58
2024/01/28 17:27:09;;;;;;;9.50;4.88;;;;;;;;;;8250632;28;21223;-57
2024/01/28 17:31:10;;;;;;;6.93;5.05;;;;;;;;;;8255040;28;20120;-58
2024/01/28 17:35:10;;;;;;;8.00;5.75;;;;;;;;;;8258802;28;20477;-59
2024/01/28 17:39:11;;;;;;;8.85;4.75;;;;;;;;;;8263222;28;20809;-58
2024/01/28 17:43:11;;;;;;;9.60;4.60;;;;;;;;;;8272174;28;20121;-57
2024/01/28 17:47:11;;;;;;;6.27;4.00;;;;;;;;;;8269268;28;20692;-58
2024/01/28 17:51:12;;;;;;;6.85;4.35;;;;;;;;;;8273014;28;21057;-59
2024/01/28 17:55:13;;;;;;;10.43;5.15;;;;;;;;;;8273522;28;20070;-58
2024/01/28 17:59:13;;;;;;;8.70;5.40;;;;;;;;;;8274822;28;20464;-57
2024/01/28 18:03:13;;;;;;;7.78;5.10;;;;;;;;;;8269473;28;20048;-57
2024/01/28 18:07:13;;;;;;;7.93;5.15;;;;;;;;;;8272391;28;20022;-58
2024/01/28 18:11:15;;;;;;;8.52;6.00;;;;;;;;;;8271461;28;20029;-57
2024/01/28 18:15:15;;;;;;;11.95;6.90;;;;;;;;;;8270578;28;20933;-57
2024/01/28 18:19:15;;;;;;;9.90;6.15;;;;;;;;;;8273305;28;20120;-57
2024/01/28 18:23:16;;;;;;;11.88;7.38;;;;;;;;;;8277584;28;20137;-58
2024/01/28 18:27:16;;;;;;;11.93;6.90;;;;;;;;;;8295241;28;20025;-59
2024/01/28 18:31:16;;;;;;;11.80;6.90;;;;;;;;;;8298160;28;20084;-59
2024/01/28 18:35:16;;;;;;;9.93;5.65;;;;;;;;;;8304851;28;20513;-59
2024/01/28 18:39:17;;;;;;;15.13;7.43;;;;;;;;;;8298848;28;20454;-59
2024/01/28 18:43:17;;;;;;;10.48;6.78;;;;;;;;;;8297618;28;20060;-61
2024/01/28 18:47:17;;;;;;;11.18;6.15;;;;;;;;;;8293255;28;20061;-58
2024/01/28 18:51:17;;;;;;;11.60;6.13;;;;;;;;;;8290503;28;20486;-59
2024/01/28 18:55:17;;;;;;;7.93;5.10;;;;;;;;;;8272252;28;20613;-58
2024/01/28 18:59:17;;;;;;;9.90;5.70;;;;;;;;;;8271820;28;20028;-58
2024/01/28 19:03:18;;;;;;;9.57;5.88;;;;;;;;;;8278425;28;20083;-59
2024/01/28 19:07:18;;;;;;;9.30;5.60;;;;;;;;;;8299607;28;20060;-59
2024/01/28 19:11:18;;;;;;;19.15;9.15;;;;;;;;;;8294926;28;20030;-59
2024/01/28 19:15:18;;;;;;;19.73;9.23;;;;;;;;;;8297294;28;20032;-60
2024/01/28 19:19:19;;;;;;;15.65;7.95;;;;;;;;;;8294442;28;20022;-59
2024/01/28 19:23:20;;;;;;;15.02;7.90;;;;;;;;;;8292303;28;20049;-60
2024/01/28 19:27:20;;;;;;;13.57;7.60;;;;;;;;;;8294153;28;20087;-59
2024/01/28 19:31:21;;;;;;;12.88;6.80;;;;;;;;;;8290692;28;20131;-58
2024/01/28 19:35:21;;;;;;;10.15;5.30;;;;;;;;;;8268406;28;20034;-59
2024/01/28 19:39:23;;;;;;;10.20;5.55;;;;;;;;;;8262249;28;20538;-59
2024/01/28 19:43:24;;;;;;;9.43;5.20;;;;;;;;;;8268799;28;20453;-59
2024/01/28 19:47:24;;;;;;;8.25;4.78;;;;;;;;;;8262302;28;20107;-59
2024/01/28 19:51:26;;;;;;;9.50;5.47;;;;;;;;;;8257855;28;20041;-58
2024/01/28 19:55:26;;;;;;;10.88;6.35;;;;;;;;;;8253625;28;20084;-58
2024/01/28 19:59:26;;;;;;;8.95;6.43;;;;;;;;;;8244403;28;20037;-58
2024/01/28 20:03:29;;;;;;;10.50;6.13;;;;;;;;;;8237018;28;20037;-57
2024/01/28 20:07:29;;;;;;;8.68;4.60;;;;;;;;;;8251589;28;20152;-57
2024/01/28 20:11:29;;;;;;;8.18;4.97;;;;;;;;;;8239501;28;20492;-59
2024/01/28 20:15:30;;;;;;;9.18;5.20;;;;;;;;;;8254506;28;20456;-58
2024/01/28 20:19:30;;;;;;;8.52;5.03;;;;;;;;;;8242969;28;20143;-58
2024/01/28 20:23:30;;;;;;;11.10;5.30;;;;;;;;;;8242611;28;20033;-58
2024/01/28 20:27:31;;;;;;;9.55;4.65;;;;;;;;;;8249647;28;20276;-59
2024/01/28 20:31:31;;;;;;;7.57;4.53;;;;;;;;;;8242718;28;20044;-59
2024/01/28 20:35:32;;;;;;;7.80;4.25;;;;;;;;;;8242122;28;20276;-59
2024/01/28 20:39:32;;;;;;;6.17;3.93;;;;;;;;;;8243870;28;20036;-60
2024/01/28 20:43:32;;;;;;;4.53;3.63;;;;;;;;;;8262997;28;20283;-59
2024/01/28 20:47:32;;;;;;;8.50;4.13;;;;;;;;;;8270518;28;20064;-59
2024/01/28 20:51:33;;;;;;;7.45;3.95;;;;;;;;;;8269795;28;20033;-58
2024/01/28 20:55:34;;;;;;;7.22;4.53;;;;;;;;;;8275145;28;20083;-59
2024/01/28 20:59:41;;;;;;;7.13;4.35;;;;;;;;;;8271934;28;20480;-59
2024/01/28 21:03:42;;;;;;;6.82;4.47;;;;;;;;;;8270781;28;20305;-59
2024/01/28 21:07:42;;;;;;;4.85;3.25;;;;;;;;;;8275087;28;20025;-58
2024/01/28 21:11:42;;;;;;;7.07;3.83;;;;;;;;;;8270948;28;20029;-59
2024/01/28 21:15:42;;;;;;;6.68;3.63;;;;;;;;;;8229734;28;20156;-59
2024/01/28 21:19:42;;;;;;;6.45;4.32;;;;;;;;;;8226219;28;20025;-58
2024/01/28 21:23:42;;;;;;;7.85;4.60;;;;;;;;;;8233065;28;20563;-57
2024/01/28 21:27:46;;;;;;;7.15;4.55;;;;;;;;;;8231064;28;20037;-56
2024/01/28 21:31:46;;;;;;;6.03;4.18;;;;;;;;;;8232656;28;20573;-57
2024/01/28 21:35:46;;;;;;;5.88;3.70;;;;;;;;;;8240866;28;20025;-56
2024/01/28 21:39:47;;;;;;;5.35;3.22;;;;;;;;;;8238264;28;20909;-57
2024/01/28 21:43:47;;;;;;;7.20;3.65;;;;;;;;;;8236817;28;20061;-57
2024/01/28 21:47:47;;;;;;;4.97;3.42;;;;;;;;;;8233913;28;20665;-57
2024/01/28 21:51:47;;;;;;;4.93;3.30;;;;;;;;;;8244359;28;20152;-59
2024/01/28 21:55:47;;;;;;;4.80;3.00;;;;;;;;;;8235226;28;20381;-59
2024/01/28 21:59:48;;;;;;;6.82;3.58;;;;;;;;;;8237530;28;20400;-58
2024/01/28 22:03:48;;;;;;;8.02;3.42;;;;;;;;;;8236281;28;21180;-60
2024/01/28 22:07:48;;;;;;;9.18;3.92;;;;;;;;;;8241236;28;20711;-58
2024/01/28 22:11:48;;;;;;;6.03;4.28;;;;;;;;;;8232844;28;20671;-59
2024/01/28 22:15:49;;;;;;;9.50;5.30;;;;;;;;;;8237792;28;21177;-59
2024/01/28 22:19:51;;;;;;;16.52;6.88;;;;;;;;;;8234008;28;21336;-60
2024/01/28 22:23:51;;;;;;;15.25;6.75;;;;;;;;;;8242002;28;23151;-59
2024/01/28 22:27:51;;;;;;;8.60;5.60;;;;;;;;;;8246963;28;20353;-59
2024/01/28 22:31:51;;;;;;;8.45;5.82;;;;;;;;;;8244329;28;20038;-58
2024/01/28 22:35:51;;;;;;;9.32;5.18;;;;;;;;;;8250238;28;20728;-59
2024/01/28 22:39:51;;;;;;;10.05;4.85;;;;;;;;;;8244772;28;20026;-59
2024/01/28 22:43:52;;;;;;;6.97;4.47;;;;;;;;;;8249960;28;21407;-59
2024/01/28 22:47:52;;;;;;;5.63;4.22;;;;;;;;;;8253135;28;20131;-58
2024/01/28 22:51:53;;;;;;;9.57;4.75;;;;;;;;;;8246811;28;21764;-59
2024/01/28 22:55:53;;;;;;;9.23;4.45;;;;;;;;;;8247826;28;20724;-59
2024/01/28 22:59:53;;;;;;;6.97;3.88;;;;;;;;;;8246072;28;20095;-59
2024/01/28 23:03:54;;;;;;;6.85;4.43;;;;;;;;;;8242870;28;20043;-58
2024/01/28 23:07:54;;;;;;;8.18;4.30;;;;;;;;;;8247968;28;20018;-58
2024/01/28 23:11:54;;;;;;;4.93;3.92;;;;;;;;;;8245045;28;20454;-58
2024/01/28 23:15:54;;;;;;;6.80;3.95;;;;;;;;;;8248528;28;20593;-58
2024/01/28 23:19:54;;;;;;;6.88;3.80;;;;;;;;;;8247774;28;20585;-59
2024/01/28 23:23:54;;;;;;;5.90;3.90;;;;;;;;;;8238366;28;20056;-58
2024/01/28 23:27:55;;;;;;;6.72;4.10;;;;;;;;;;8241077;28;20107;-58
2024/01/28 23:31:55;;;;;;;6.07;4.05;;;;;;;;;;8250522;28;20046;-57
2024/01/28 23:35:55;;;;;;;8.13;3.78;;;;;;;;;;8246156;28;20428;-58
2024/01/28 23:39:55;;;;;;;5.05;3.78;;;;;;;;;;8251040;28;20279;-58
2024/01/28 23:43:56;;;;;;;5.88;3.40;;;;;;;;;;8252481;28;20048;-58
2024/01/28 23:47:56;;;;;;;6.57;3.70;;;;;;;;;;8250745;28;20550;-58
2024/01/28 23:51:56;;;;;;;4.45;3.30;;;;;;;;;;8252625;28;20021;-58
2024/01/28 23:55:56;;;;;;;5.18;3.10;;;;;;;;;;8249412;28;20260;-59